createdAt,value
2022-11-15T00:02:50.232Z,7.15
2022-11-15T00:06:11.400Z,7.07
2022-11-15T00:09:32.703Z,6.95
2022-11-15T00:12:53.915Z,7.01
2022-11-15T00:16:15.221Z,6.99
2022-11-15T00:19:37.825Z,6.89
2022-11-15T00:22:59.239Z,6.86
2022-11-15T00:26:20.203Z,6.80
2022-11-15T00:29:44.217Z,6.86
2022-11-15T00:33:06.457Z,6.74
2022-11-15T00:36:29.231Z,6.84
2022-11-15T00:39:50.320Z,6.82
2022-11-15T00:43:11.495Z,6.85
2022-11-15T00:46:33.442Z,6.84
2022-11-15T00:49:54.690Z,6.74
2022-11-15T00:53:17.405Z,6.65
2022-11-15T00:56:38.782Z,6.73
2022-11-15T01:00:00.063Z,6.69
2022-11-15T01:03:21.541Z,6.83
2022-11-15T01:06:42.555Z,6.85
2022-11-15T01:10:05.198Z,6.91
2022-11-15T01:13:26.688Z,6.84
2022-11-15T01:16:47.852Z,6.89
2022-11-15T01:20:09.580Z,6.97
2022-11-15T01:23:31.527Z,7.05
2022-11-15T01:26:54.638Z,7.00
2022-11-15T01:30:15.784Z,6.93
2022-11-15T01:33:37.869Z,6.87
2022-11-15T01:36:59.863Z,6.86
2022-11-15T01:40:21.185Z,6.90
2022-11-15T01:43:43.602Z,6.90
2022-11-15T01:47:06.429Z,6.88
2022-11-15T01:50:30.282Z,6.84
2022-11-15T01:53:53.859Z,6.81
2022-11-15T01:57:15.459Z,6.69
2022-11-15T02:00:38.248Z,6.57
2022-11-15T02:04:01.075Z,6.59
2022-11-15T02:07:23.809Z,6.67
2022-11-15T02:10:44.867Z,6.69
2022-11-15T02:14:07.250Z,6.70
2022-11-15T02:17:35.852Z,6.72
2022-11-15T02:21:12.234Z,6.72
2022-11-15T02:24:50.520Z,6.65
2022-11-15T02:28:29.489Z,6.59
2022-11-15T02:31:54.714Z,6.67
2022-11-15T02:35:19.766Z,6.73
2022-11-15T02:38:46.851Z,6.78
2022-11-15T02:42:31.133Z,6.85
2022-11-15T02:45:55.088Z,6.79
2022-11-15T02:49:18.237Z,6.84
2022-11-15T02:52:39.450Z,6.82
2022-11-15T02:56:00.687Z,6.78
2022-11-15T02:59:30.418Z,6.87
2022-11-15T03:03:04.166Z,6.96
2022-11-15T03:06:31.972Z,6.96
2022-11-15T03:09:57.613Z,7.01
2022-11-15T03:13:24.116Z,7.00
2022-11-15T03:16:49.512Z,7.06
2022-11-15T03:20:12.509Z,7.05
2022-11-15T03:23:36.051Z,7.04
2022-11-15T03:26:57.790Z,6.94
2022-11-15T03:30:19.193Z,6.88
2022-11-15T03:33:41.225Z,6.83
2022-11-15T03:37:03.431Z,6.79
2022-11-15T03:40:29.935Z,6.74
2022-11-15T03:43:55.658Z,6.76
2022-11-15T03:47:20.188Z,6.61
2022-11-15T03:50:42.226Z,6.63
2022-11-15T03:54:04.835Z,6.65
2022-11-15T03:57:27.422Z,6.66
2022-11-15T04:00:49.082Z,6.70
2022-11-15T04:04:10.271Z,6.78
2022-11-15T04:07:31.654Z,6.81
2022-11-15T04:10:53.540Z,6.80
2022-11-15T04:14:15.971Z,6.79
2022-11-15T04:17:38.007Z,6.73
2022-11-15T04:21:16.450Z,6.69
2022-11-15T04:24:38.032Z,6.68
2022-11-15T04:27:59.406Z,6.64
2022-11-15T04:31:21.852Z,6.64
2022-11-15T04:34:43.032Z,6.70
2022-11-15T04:38:05.115Z,6.73
2022-11-15T04:41:26.488Z,6.69
2022-11-15T04:44:47.793Z,6.74
2022-11-15T04:48:10.608Z,6.74
2022-11-15T04:51:31.770Z,6.75
2022-11-15T04:54:53.089Z,6.76
2022-11-15T04:58:14.550Z,6.78
2022-11-15T05:01:39.459Z,6.70
2022-11-15T05:05:04.786Z,6.69
2022-11-15T05:08:26.264Z,6.71
2022-11-15T05:11:47.794Z,6.77
2022-11-15T05:15:09.387Z,6.75
2022-11-15T05:18:30.786Z,6.71
2022-11-15T05:21:53.277Z,6.74
2022-11-15T05:25:14.710Z,6.73
2022-11-15T05:28:37.443Z,6.71
2022-11-15T05:31:58.917Z,6.71
2022-11-15T05:35:22.142Z,6.68
2022-11-15T05:38:45.261Z,6.62
2022-11-15T05:42:08.030Z,6.58
2022-11-15T05:45:30.020Z,6.53
2022-11-15T05:48:52.197Z,6.53
2022-11-15T05:52:16.441Z,6.50
2022-11-15T05:55:39.941Z,6.46
2022-11-15T05:59:01.839Z,6.48
2022-11-15T06:02:23.602Z,6.52
2022-11-15T06:05:45.183Z,6.49
2022-11-15T06:09:06.521Z,6.30
2022-11-15T06:12:29.396Z,6.28
2022-11-15T06:15:50.705Z,6.30
2022-11-15T06:19:12.070Z,6.31
2022-11-15T06:22:33.428Z,6.30
2022-11-15T06:25:54.830Z,6.32
2022-11-15T06:29:17.633Z,6.33
2022-11-15T06:32:38.975Z,6.27
2022-11-15T06:36:02.082Z,6.10
2022-11-15T06:39:23.815Z,6.09
2022-11-15T06:42:45.227Z,5.90
2022-11-15T06:46:08.549Z,5.99
2022-11-15T06:49:29.898Z,6.01
2022-11-15T06:52:51.279Z,6.04
2022-11-15T06:56:12.721Z,6.03
2022-11-15T06:59:37.797Z,6.00
2022-11-15T07:03:03.338Z,6.02
2022-11-15T07:06:24.776Z,6.07
2022-11-15T07:09:46.318Z,6.11
2022-11-15T07:13:07.514Z,6.13
2022-11-15T07:16:28.488Z,6.22
2022-11-15T07:19:50.967Z,6.34
2022-11-15T07:23:12.375Z,6.40
2022-11-15T07:26:33.608Z,6.50
2022-11-15T07:29:55.315Z,6.61
2022-11-15T07:33:16.538Z,6.67
2022-11-15T07:36:39.429Z,6.84
2022-11-15T07:40:00.537Z,6.92
2022-11-15T07:43:21.784Z,6.93
2022-11-15T07:46:43.052Z,6.96
2022-11-15T07:50:04.284Z,7.20
2022-11-15T07:53:26.780Z,7.21
2022-11-15T07:56:48.050Z,7.30
2022-11-15T08:00:09.948Z,7.33
2022-11-15T08:03:31.283Z,7.38
2022-11-15T08:06:53.012Z,7.47
2022-11-15T08:10:17.773Z,7.58
2022-11-15T08:13:39.105Z,7.67
2022-11-15T08:17:00.351Z,7.74
2022-11-15T08:20:21.623Z,7.93
2022-11-15T08:23:42.800Z,8.19
2022-11-15T08:27:05.274Z,8.28
2022-11-15T08:30:26.735Z,8.33
2022-11-15T08:33:48.194Z,8.44
2022-11-15T08:37:09.217Z,8.53
2022-11-15T08:40:30.375Z,8.57
2022-11-15T08:43:52.885Z,8.78
2022-11-15T08:47:14.650Z,8.89
2022-11-15T08:50:36.346Z,8.91
2022-11-15T08:53:57.687Z,9.07
2022-11-15T08:57:19.020Z,9.25
2022-11-15T09:00:41.893Z,9.43
2022-11-15T09:04:04.867Z,9.60
2022-11-15T09:07:26.221Z,9.87
2022-11-15T09:10:47.448Z,10.11
2022-11-15T09:14:08.471Z,10.27
2022-11-15T09:17:30.988Z,10.39
2022-11-15T09:20:51.932Z,10.67
2022-11-15T09:24:16.123Z,10.83
2022-11-15T09:27:37.345Z,11.02
2022-11-15T09:31:00.061Z,11.16
2022-11-15T09:34:22.893Z,11.33
2022-11-15T09:37:44.370Z,11.54
2022-11-15T09:41:26.347Z,11.67
2022-11-15T09:44:54.431Z,12.09
2022-11-15T09:48:30.907Z,12.51
2022-11-15T09:51:54.878Z,12.69
2022-11-15T09:54:57.990Z,12.73
2022-11-15T09:58:06.027Z,12.81
2022-11-15T10:01:14.215Z,13.00
2022-11-15T10:04:18.048Z,13.21
2022-11-15T10:07:25.452Z,13.36
2022-11-15T10:10:31.491Z,13.52
2022-11-15T10:13:35.636Z,13.63
2022-11-15T10:16:53.191Z,13.88
2022-11-15T10:20:05.617Z,13.97
2022-11-15T10:23:13.716Z,13.92
2022-11-15T10:26:17.559Z,13.81
2022-11-15T10:29:26.423Z,13.89
2022-11-15T10:32:30.194Z,14.09
2022-11-15T10:35:32.942Z,14.12
2022-11-15T10:38:53.740Z,14.25
2022-11-15T10:41:56.603Z,14.26
2022-11-15T10:44:59.869Z,14.39
2022-11-15T10:48:21.593Z,14.59
2022-11-15T10:51:29.139Z,14.70
2022-11-15T10:54:38.217Z,14.68
2022-11-15T10:57:40.968Z,14.65
2022-11-15T11:00:43.678Z,14.75
2022-11-15T11:03:47.039Z,14.88
2022-11-15T11:06:51.034Z,14.90
2022-11-15T11:10:00.645Z,15.01
2022-11-15T11:13:15.305Z,15.15
2022-11-15T11:16:39.269Z,15.23
2022-11-15T11:19:57.607Z,15.40
2022-11-15T11:23:05.091Z,15.58
2022-11-15T11:26:15.927Z,15.52
2022-11-15T11:29:24.268Z,15.59
2022-11-15T11:32:41.967Z,15.63
2022-11-15T11:35:49.775Z,15.56
2022-11-15T11:38:56.163Z,15.57
2022-11-15T11:42:05.160Z,15.61
2022-11-15T11:45:17.473Z,15.63
2022-11-15T11:48:26.456Z,15.63
2022-11-15T11:51:31.443Z,15.66
2022-11-15T11:54:39.266Z,15.60
2022-11-15T11:57:46.247Z,15.66
2022-11-15T12:00:51.713Z,15.79
2022-11-15T12:04:01.888Z,15.84
2022-11-15T12:07:09.700Z,15.96
2022-11-15T12:10:19.334Z,16.00
2022-11-15T12:13:26.256Z,16.15
2022-11-15T12:16:30.589Z,16.24
2022-11-15T12:19:33.506Z,16.35
2022-11-15T12:22:40.229Z,16.52
2022-11-15T12:25:47.115Z,16.55
2022-11-15T12:29:06.946Z,16.13
2022-11-15T12:32:18.667Z,16.43
2022-11-15T12:35:29.729Z,16.47
2022-11-15T12:38:50.325Z,16.36
2022-11-15T12:42:07.894Z,16.49
2022-11-15T12:49:00.124Z,16.54
2022-11-15T12:52:08.237Z,16.37
2022-11-15T12:55:25.849Z,16.44
2022-11-15T12:58:30.480Z,16.48
2022-11-15T13:01:52.366Z,16.54
2022-11-15T13:04:56.433Z,16.54
2022-11-15T13:08:00.893Z,16.46
2022-11-15T13:11:18.537Z,16.18
2022-11-15T13:14:40.403Z,16.33
2022-11-15T13:17:44.674Z,16.30
2022-11-15T13:20:47.547Z,16.02
2022-11-15T13:23:55.031Z,16.14
2022-11-15T13:26:57.912Z,16.15
2022-11-15T13:30:16.446Z,16.15
2022-11-15T13:33:21.229Z,16.14
2022-11-15T13:36:25.160Z,16.09
2022-11-15T13:39:30.347Z,16.08
2022-11-15T13:42:33.357Z,16.15
2022-11-15T13:45:36.014Z,16.14
2022-11-15T13:48:39.192Z,16.08
2022-11-15T13:51:45.039Z,16.14
2022-11-15T13:54:52.848Z,16.15
2022-11-15T13:57:56.948Z,16.12
2022-11-15T14:01:04.012Z,16.10
2022-11-15T14:04:06.685Z,16.14
2022-11-15T14:07:18.271Z,16.05
2022-11-15T14:10:27.913Z,15.94
2022-11-15T14:13:33.023Z,15.86
2022-11-15T14:16:36.830Z,15.82
2022-11-15T14:19:40.760Z,15.73
2022-11-15T14:22:52.987Z,15.67
2022-11-15T14:25:56.267Z,15.72
2022-11-15T14:29:20.404Z,15.49
2022-11-15T14:32:23.859Z,15.21
2022-11-15T14:35:26.529Z,15.06
2022-11-15T14:38:29.535Z,14.75
2022-11-15T14:41:38.859Z,14.62
2022-11-15T14:44:45.933Z,14.18
2022-11-15T14:47:49.459Z,14.01
2022-11-15T14:50:52.100Z,13.67
2022-11-15T14:53:56.338Z,13.43
2022-11-15T14:56:59.205Z,13.49
2022-11-15T15:00:04.041Z,13.54
2022-11-15T15:03:15.691Z,13.51
2022-11-15T15:06:18.718Z,13.17
2022-11-15T15:09:21.478Z,12.99
2022-11-15T15:12:24.960Z,12.69
2022-11-15T15:15:33.445Z,12.36
2022-11-15T15:18:36.339Z,12.16
2022-11-15T15:21:40.215Z,12.19
2022-11-15T15:24:42.940Z,12.20
2022-11-15T15:27:45.881Z,12.19
2022-11-15T15:30:50.684Z,11.97
2022-11-15T15:33:53.473Z,11.77
2022-11-15T15:37:08.604Z,11.53
2022-11-15T15:40:14.234Z,11.15
2022-11-15T15:43:16.939Z,11.32
2022-11-15T15:46:21.598Z,11.26
2022-11-15T15:49:24.343Z,10.96
2022-11-15T15:52:27.209Z,10.97
2022-11-15T15:55:29.959Z,10.99
2022-11-15T15:58:33.815Z,10.63
2022-11-15T16:01:38.331Z,10.45
2022-11-15T16:04:41.560Z,10.42
2022-11-15T16:07:45.191Z,10.50
2022-11-15T16:10:48.325Z,10.29
2022-11-15T16:13:51.114Z,10.26
2022-11-15T16:16:55.205Z,10.38
2022-11-15T16:19:57.924Z,10.19
2022-11-15T16:23:05.787Z,10.20
2022-11-15T16:26:16.474Z,10.18
2022-11-15T16:29:19.254Z,10.21
2022-11-15T16:32:23.920Z,10.06
2022-11-15T16:35:26.723Z,10.05
2022-11-15T16:38:29.541Z,9.87
2022-11-15T16:41:32.671Z,9.81
2022-11-15T16:44:35.779Z,9.45
2022-11-15T16:47:39.887Z,9.36
2022-11-15T16:50:43.082Z,9.26
2022-11-15T16:53:45.850Z,9.13
2022-11-15T16:56:48.717Z,9.08
2022-11-15T16:59:51.552Z,9.18
2022-11-15T17:02:56.135Z,9.07
2022-11-15T17:05:59.691Z,9.05
2022-11-15T17:09:02.468Z,9.25
2022-11-15T17:12:05.348Z,8.98
2022-11-15T17:15:08.403Z,9.01
2022-11-15T17:18:15.387Z,8.95
2022-11-15T17:21:18.941Z,8.77
2022-11-15T17:24:21.836Z,8.56
2022-11-15T17:27:24.807Z,8.51
2022-11-15T17:30:27.546Z,8.13
2022-11-15T17:33:32.353Z,8.13
2022-11-15T17:36:35.377Z,8.19
2022-11-15T17:39:38.098Z,8.32
2022-11-15T17:42:41.655Z,8.40
2022-11-15T17:45:45.133Z,8.04
2022-11-15T17:48:49.676Z,7.95
2022-11-15T17:51:53.425Z,7.86
2022-11-15T17:54:56.138Z,7.98
2022-11-15T17:57:58.977Z,7.97
2022-11-15T18:01:06.390Z,7.86
2022-11-15T18:04:10.693Z,7.72
2022-11-15T18:07:14.299Z,7.65
2022-11-15T18:10:17.380Z,7.72
2022-11-15T18:13:20.115Z,7.81
2022-11-15T18:16:25.293Z,7.71
2022-11-15T18:19:29.363Z,7.75
2022-11-15T18:22:32.018Z,7.86
2022-11-15T18:25:34.784Z,7.70
2022-11-15T18:28:39.140Z,7.64
2022-11-15T18:31:46.479Z,7.60
2022-11-15T18:34:51.849Z,7.61
2022-11-15T18:37:56.010Z,7.53
2022-11-15T18:40:59.645Z,7.55
2022-11-15T18:44:03.080Z,7.51
2022-11-15T18:47:06.096Z,7.21
2022-11-15T18:50:10.417Z,7.34
2022-11-15T18:53:13.120Z,7.44
2022-11-15T18:56:16.893Z,7.37
2022-11-15T18:59:20.173Z,7.33
2022-11-15T19:02:22.889Z,7.37
2022-11-15T19:05:26.964Z,7.36
2022-11-15T19:08:32.935Z,7.20
2022-11-15T19:11:39.621Z,7.15
2022-11-15T19:14:42.488Z,7.13
2022-11-15T19:17:45.413Z,7.02
2022-11-15T19:20:49.968Z,6.93
2022-11-15T19:23:54.212Z,6.84
2022-11-15T19:26:56.996Z,6.83
2022-11-15T19:29:59.802Z,6.76
2022-11-15T19:33:02.516Z,6.83
2022-11-15T19:36:07.695Z,6.93
2022-11-15T19:39:12.876Z,6.94
2022-11-15T19:42:15.691Z,6.80
2022-11-15T19:45:18.365Z,6.65
2022-11-15T19:48:21.559Z,6.73
2022-11-15T19:51:27.113Z,6.50
2022-11-15T19:54:29.937Z,6.65
2022-11-15T19:57:32.994Z,6.46
2022-11-15T20:00:35.832Z,6.38
2022-11-15T20:03:39.970Z,6.49
2022-11-15T20:06:44.087Z,6.48
2022-11-15T20:09:46.758Z,6.45
2022-11-15T20:12:49.524Z,6.37
2022-11-15T20:15:55.233Z,6.29
2022-11-15T20:18:58.328Z,6.48
2022-11-15T20:22:02.474Z,6.30
2022-11-15T20:25:05.412Z,6.37
2022-11-15T20:28:11.088Z,6.38
2022-11-15T20:31:14.173Z,6.31
2022-11-15T20:34:17.281Z,6.27
2022-11-15T20:37:21.442Z,6.35
2022-11-15T20:40:24.095Z,6.08
2022-11-15T20:43:26.862Z,5.79
2022-11-15T20:46:29.749Z,6.19
2022-11-15T20:49:32.438Z,6.24
2022-11-15T20:52:36.537Z,6.22
2022-11-15T20:55:42.694Z,6.35
2022-11-15T20:58:46.891Z,6.48
2022-11-15T21:01:49.750Z,6.53
2022-11-15T21:04:52.526Z,6.57
2022-11-15T21:07:56.586Z,6.63
2022-11-15T21:11:16.929Z,6.67
2022-11-15T21:14:19.857Z,6.71
2022-11-15T21:17:22.562Z,6.72
2022-11-15T21:20:25.432Z,6.75
2022-11-15T21:23:29.760Z,6.76
2022-11-15T21:26:32.522Z,6.78
2022-11-15T21:29:38.651Z,6.84
2022-11-15T21:32:41.471Z,6.87
2022-11-15T21:35:44.216Z,6.81
2022-11-15T21:38:48.317Z,6.80
2022-11-15T21:41:51.056Z,6.76
2022-11-15T21:44:53.835Z,6.79
2022-11-15T21:47:56.550Z,6.83
2022-11-15T21:50:59.840Z,6.85
2022-11-15T21:54:04.162Z,6.91
2022-11-15T21:57:06.930Z,6.87
2022-11-15T22:00:27.537Z,6.83
2022-11-15T22:03:30.432Z,6.83
2022-11-15T22:06:33.331Z,6.84
2022-11-15T22:09:37.534Z,6.78
2022-11-15T22:12:40.333Z,6.69
2022-11-15T22:15:45.400Z,6.70
2022-11-15T22:18:48.088Z,6.76
2022-11-15T22:21:50.870Z,6.76
2022-11-15T22:24:55.030Z,6.79
2022-11-15T22:27:57.807Z,6.73
2022-11-15T22:31:01.271Z,6.75
2022-11-15T22:34:04.457Z,6.76
2022-11-15T22:37:20.068Z,6.76
2022-11-15T22:40:27.915Z,6.71
2022-11-15T22:43:30.909Z,6.72
2022-11-15T22:46:33.701Z,6.74
2022-11-15T22:49:36.472Z,6.75
2022-11-15T22:52:39.246Z,6.66
2022-11-15T22:55:43.402Z,6.62
2022-11-15T22:58:46.107Z,6.58
2022-11-15T23:01:50.890Z,6.55
2022-11-15T23:04:53.562Z,6.54
2022-11-15T23:07:56.301Z,6.41
2022-11-15T23:11:30.235Z,6.40
2022-11-15T23:14:32.955Z,6.42
2022-11-15T23:17:35.690Z,6.41
2022-11-15T23:20:43.290Z,6.45
2022-11-15T23:23:46.400Z,6.38
2022-11-15T23:26:51.383Z,6.38
2022-11-15T23:30:11.331Z,6.41
2022-11-15T23:33:32.274Z,6.39
2022-11-15T23:36:34.995Z,6.27
2022-11-15T23:39:37.722Z,6.26
2022-11-15T23:42:41.842Z,6.24
2022-11-15T23:45:44.659Z,6.23
2022-11-15T23:48:47.384Z,6.29
2022-11-15T23:51:50.257Z,6.17
2022-11-15T23:54:52.986Z,6.18
2022-11-15T23:57:57.061Z,6.10
